Talkeetna, AK (99676)

1:56 AM AKDT on August 29, 2015 (GMT -0800)
Talkeetna | | Change Station
CLOSE
Current Station
Airport
Location: Talkeetna,
Elevation: 358 ft
Nearby Weather Stations

Elev 358 ft 62.32 °N, 150.09 °W | Updated 3 minutes ago

Clear
Clear
36 °F
Feels Like 36 °F
N
0
Wind Variable Wind from North

Today
High -- | Low -- °F
--% Chance of Precip.
Yesterday
High -- | Low -- °F
Precip. -- in
6:40 AM 9:18 PM
Full, 100% visible
Pressure 29.65 in
Visibility 10.0 miles
Clouds Clear
Dew Point 32 °F
Humidity 86%
Rainfall 0.00 in
Snow Depth Not available.
UV 0 out of 12
Pollen Not available.
Air Quality Not available.
Flu Activity Not available.
METAR PATK 290953Z AUTO 00000KT 10SM CLR 02/00 A2964 RMK AO2 SLP039 T00220000 TSNO
Pressure 29.65 in
Visibility 10.0 miles
Clouds Clear
Dew Point 32 °F
Humidity 86%
Rainfall 0.00 in
Snow Depth Not available.
UV 0 out of 12
Pollen Not available.
Air Quality Not available.
Flu Activity Not available.
METAR PATK 290953Z AUTO 00000KT 10SM CLR 02/00 A2964 RMK AO2 SLP039 T00220000 TSNO

10-Day Weather Forecast

×

Almanac

Astronomy

Aug. 29, 2015 Rise Set
Actual Time
Civil Twilight
Nautical Twilight
Astronomical Twilight
Moon
Length of Visible Light
Length of Day
Tomorrow will be .
, % of the Moon is Illuminated

Today's Extremes

State Highs State Lows

Community

WunderPhotos

Upload Photos

1,850,634 photos uploaded!

WunderBlogs® & News

Nearby

Air Quality

  Air Quality AQ Index Pollutant
Not available.

Snow Depth

Station Depth Elevation

Earthquake Activity

City Distance Mag. Time & Date
Minimum magnitude displayed is 2.5.

Coastal Water Temperatures

Place Temperature

Stations

Nearby Weather Stations

Station Location Temp. Windchill Dew Point Humidity Wind Precip. Elev Updated Type